Mobirise responsive web design software

REALTIME WEATHER NETWORK

Station: ALVERCA
Elevation: 11 ft
Latest report: --

METAR
Station not yet available

Station: AGUEDA (CASARÃO)
Elevation: 304 ft
Latest report: --

METAR
Station not yet available

Station: ALENTEJO AIR PARK
Elevation: 422 ft
Latest report: --

METAR
Station not yet available

Station: ALQUEIDÃO
Elevation: 10 ft
Latest report: --

METAR
Station not yet available

Station: AMENDOEIRA
Elevation: 636 ft
Latest report: --

METAR
Station not yet available

Station: ATOUGUIA DA BALEIA
Elevation: 30 ft
Latest report: --

METAR
Station not yet available

Station: AZAMBUJA
Elevation: 15 ft
Latest report: --

METAR
Station not yet available

Station: BEJA
Elevation: 636 ft
Latest report: NOAA

METAR
LPBJ 232000Z 19009KT 9999 FEW020 SCT045 16/16 Q1018

TAF
LPBJ 231711Z 2318/2418 18012KT 9999 BKN020
TEMPO 2318/2321 6000 -RA BKN020 PROB40 2322/2408 18004KT 0200 FG BKN002
BECMG 2408/2411 FEW020

Station: BEJA CIVIL
Elevation: 617 ft
Latest report: --

METAR
Station not yet available

Station: BENAVENTE
Elevation: 100 ft
Latest report: 2017-11-23 20:33:42Z

METAR
BENAV 232030Z 20012KT 18/18 Q1015

Station: BRAGA
Elevation: 243 ft
Latest report: --

METAR
Station not yet available

Station: BRAGANÇA
Elevation: 2278 ft
Latest report: 2017-11-23 20:33:30Z

METAR
LPBG 232030Z 05004KT 12/12 Q1014

Station: CABECEIRAS DE BASTO
Elevation: 2411 ft
Latest report: --

METAR
Station not yet available

Station: CASCAIS
Elevation: 326 ft
Latest report: NOAA

METAR
LPCS 231900Z 22016KT 6000 BKN003 BKN009 17/16 Q1015

Station: CASTELO BRANCO
Elevation: 1251 ft
Latest report: --

METAR
Station not yet available

Station: CASTRO VERDE (HERDADE DA ZAMBUJEIRA)
Elevation: 732 ft
Latest report: --

METAR
Station not yet available

Station: CERVAL
Elevation: 141 ft
Latest report: --

METAR
Station not yet available

Station: CHAVES
Elevation: 1195 ft
Latest report: --

METAR
Station not yet available

Station: ESPINHO
Elevation: 13 ft
Latest report: --

METAR
Station not yet available

Station: ÉVORA
Elevation: 807 ft
Latest report: --

METAR
Station not yet available

Station: FARO
Elevation: 24 ft
Latest report: NOAA

METAR
LPFR 232000Z 20007KT 9999 SCT025 20/17 Q1018

TAF
LPFR 231700Z 2318/2418 19010KT 9999 SCT015
TEMPO 2318/2323 SCT006 BKN010 PROB40
TEMPO 2318/2323 3000 DZ BR SCT002 BKN005
BECMG 2323/2401 VRB03KT
BECMG 2409/2412 10010KT FEW020
BECMG 2414/2416 VRB03KT CAVOK

Station: FERREIRA DO ALENTEJO
Elevation: 459 ft
Latest report: --

METAR
Station not yet available

Station: FERREIRA DO ZÊZERE (VALADAS)
Elevation: 1080 ft
Latest report: --

METAR
Station not yet available

Station: FIGUEIRA DOS CAVALEIROS
Elevation: 262 ft
Latest report: --

METAR
Station not yet available

Station: LAGOS
Elevation: 15 ft
Latest report: --

METAR
Station not yet available

Station: LAMEIRA
Elevation: 623 ft
Latest report: --

METAR
Station not yet available

Station: LAÚNDOS
Elevation: 262 ft
Latest report: --

METAR
Station not yet available

Station: LEIRIA
Elevation: 139 ft
Latest report: --

METAR
Station not yet available

Station: LISBOA
Elevation: 374 ft
Latest report: NOAA

METAR
LPPT 232000Z 22018KT 9000 FEW006 BKN010 17/16 Q1015

TAF
LPPT 231700Z 2318/2424 18015KT 8000 -RA SCT005 BKN010
TEMPO 2318/2412 5000 RADZ BR SCT003 BKN005 FEW018TCU PROB30
TEMPO 2318/2320 18020G32KT 2000 TSRA BKN003 SCT015CB
BECMG 2320/2322 22010KT 9999 NSW SCT006 PROB30
TEMPO 2403/2409 VRB03KT 0500 DZ FG BKN001
BECMG 2420/2422 VRB03KT

Station: LOUSÃ
Elevation: 654 ft
Latest report: --

METAR
Station not yet available

Station: VILAR DE LUZ
Elevation: 762 ft
Latest report: 2017-11-23 20:31:58Z

METAR
LPVL 232030Z 09008KT 16/13 Q1012

Station: MIRANDELA
Elevation: 1322 ft
Latest report: 2017-11-23 14:58:42Z

METAR
LPMI 231455Z 35004KT 15/14 Q1010

Station: MOGADOURO
Elevation: 2344 ft
Latest report: 2017-11-23 20:32:14Z

METAR
LPMU 232030Z 19016KT 14/06 Q1014

Station: MONFORTE
Elevation: 900 ft
Latest report: --

METAR
Station not yet available

Station: PALMA
Elevation: 281 ft
Latest report: --

METAR
Station not yet available

Station: PEGÕES (HERDADE DO PONTAL
Elevation: 295 ft
Latest report: --

METAR
Station not yet available

Station: PONTE DE SÔR
Elevation: 390 ft
Latest report: --

METAR
Station not yet available

Station: POMBAL (CASALINHO)
Elevation: 250 ft
Latest report: --

METAR
Station not yet available

Station: PORTIMÃO
Elevation: 4 ft
Latest report: --

METAR
Station not yet available

Station: PORTO
Elevation: 227 ft
Latest report: NOAA

METAR
LPPR 232000Z 22003KT 180V270 9999 -RA FEW025 BKN048 16/13 Q1013

TAF
LPPR 231700Z 2318/2418 13007KT 9999 SCT010 SCT030
TEMPO 2318/2418 5000 RADZ BR SCT003 BKN006
BECMG 2321/2324 VRB03KT BKN010 PROB30
TEMPO 2400/2410 1200 DZRA BR BKN002
BECMG 2407/2410 20012KT

Station: PROENÇA-A-NOVA
Elevation: 407 ft
Latest report: --

METAR
Station not yet available

Station: REGUENGOS (CAMPINHO)
Elevation: 630 ft
Latest report: --

METAR
Station not yet available

Station: SABUGAL (CABEÇO DA VACA)
Elevation: 3117 ft
Latest report: --

METAR
Station not yet available

Station: SANTA CRUZ
Elevation: 161 ft
Latest report: --

METAR
Station not yet available

Station: SANTARÉM
Elevation: 30 ft
Latest report: --

METAR
Station not yet available

Station: SEIA
Elevation: 1445 ft
Latest report: --

METAR
Station not yet available

Station: TOJEIRA
Elevation: 330 ft
Latest report: --

METAR
Station not yet available

Station: TOMAR (VALDONAS)
Elevation: 253 ft
Latest report: --

METAR
Station not yet available

Station: VILA REAL
Elevation: 1832 ft
Latest report: --

METAR
Station not yet available

Station: VISEU
Elevation: 2061 ft
Latest report: --

METAR
Station not yet available

Station: LEZÍRIA
Elevation: 10 ft
Latest report: --

METAR
Station not yet available

Station: FAIAS
Elevation: 134 ft
Latest report: --

METAR
Station not yet available

Station: COIMBRA
Elevation: 570 ft
Latest report: --

METAR
Station not yet available

Station: GARROCHEIRA
Elevation: 62 ft
Latest report: 2017-11-23 20:31:35Z

METAR
GARROCHEIRA 232030Z 21012KT 17/17 Q1015

ABOUT US

Our main objective is to increase information and safety on outdoor activities with a focus on Sports Aviation. This network of weather information gathers data from devices located in several airfields and other locations in order to provide the most accurate and localized weather information at all times. Join our network to increase the number of locations covered. Check how on the CONTACT US section.

REALTIME WEATHER NETWORK by Stingray Avionics

JOIN OUR NETWORK